Time;durP1;ratioP1;P1;durP2;ratioP2;P2;SDS_P1;SDS_P2;PMS_P1;PMS_P2;Temp;Humidity;BMP_temperature;BMP_pressure;BME280_temperature;BME280_humidity;BME280_pressure;Samples;Min_cycle;Max_cycle;Signal;HPM_P1;HPM_P2
2022/09/04 00:00:43;;;;;;;9.35;2.17;;;26.20;99.90;;;;;;5032140;28;20017;-71
2022/09/04 00:03:25;;;;;;;9.52;1.95;;;26.30;99.90;;;;;;5031658;28;20032;-70
2022/09/04 00:05:57;;;;;;;5.93;1.83;;;26.30;99.90;;;;;;5031634;28;20028;-70
2022/09/04 00:08:41;;;;;;;7.78;2.05;;;26.40;99.90;;;;;;5031467;28;20073;-70
2022/09/04 00:11:25;;;;;;;11.85;2.08;;;26.40;99.90;;;;;;5031518;28;20022;-70
2022/09/04 00:14:06;;;;;;;7.72;1.58;;;26.40;99.90;;;;;;5031499;28;20084;-70
2022/09/04 00:16:51;;;;;;;11.77;2.20;;;26.50;99.90;;;;;;5031389;28;20055;-70
2022/09/04 00:19:30;;;;;;;8.23;2.00;;;26.50;99.90;;;;;;5031274;28;20427;-71
2022/09/04 00:21:59;;;;;;;8.95;2.05;;;26.50;99.90;;;;;;5030983;28;20100;-71
2022/09/04 00:24:34;;;;;;;8.32;2.30;;;26.50;99.90;;;;;;5031174;28;20033;-71
2022/09/04 00:27:12;;;;;;;7.18;1.73;;;26.40;99.90;;;;;;5031365;28;20408;-71
2022/09/04 00:30:01;;;;;;;8.55;2.08;;;26.40;99.90;;;;;;5029859;28;20170;-71
2022/09/04 00:32:38;;;;;;;8.88;2.15;;;26.40;99.90;;;;;;5030958;28;20401;-71
2022/09/04 00:35:08;;;;;;;10.07;2.47;;;26.50;99.90;;;;;;5030956;28;20037;-71
2022/09/04 00:37:52;;;;;;;9.73;2.33;;;26.50;99.90;;;;;;5030977;28;20025;-71
2022/09/04 00:40:40;;;;;;;9.52;1.80;;;26.50;99.90;;;;;;5030972;28;20048;-71
2022/09/04 00:43:53;;;;;;;9.35;2.20;;;26.40;99.90;;;;;;5031095;28;20032;-71
2022/09/04 00:46:46;;;;;;;10.40;2.20;;;26.40;99.90;;;;;;5031286;28;20021;-71
2022/09/04 00:49:35;;;;;;;8.90;2.05;;;26.40;99.90;;;;;;5031308;28;20021;-71
2022/09/04 00:52:04;;;;;;;7.43;1.50;;;26.40;99.90;;;;;;5031046;28;20030;-72
2022/09/04 00:54:56;;;;;;;5.78;1.88;;;26.40;99.90;;;;;;5030939;28;20037;-71
2022/09/04 00:57:28;;;;;;;7.95;1.92;;;26.40;99.90;;;;;;5030943;28;20079;-71
2022/09/04 01:00:10;;;;;;;6.50;1.98;;;26.40;99.90;;;;;;5030554;28;20060;-71
2022/09/04 01:03:06;;;;;;;6.60;1.92;;;26.40;99.90;;;;;;5030573;28;20210;-71
2022/09/04 01:05:39;;;;;;;10.02;2.00;;;26.40;99.90;;;;;;5030572;28;20048;-71
2022/09/04 01:08:38;;;;;;;9.52;1.90;;;26.40;99.90;;;;;;5030350;28;20066;-71
2022/09/04 01:11:35;;;;;;;9.70;2.10;;;26.40;99.90;;;;;;5030867;28;20116;-71
2022/09/04 01:14:14;;;;;;;8.95;2.00;;;26.40;99.90;;;;;;5030715;28;20381;-72
2022/09/04 01:16:53;;;;;;;5.65;1.38;;;26.40;99.90;;;;;;5030725;28;20021;-71
2022/09/04 01:20:02;;;;;;;9.32;2.17;;;26.40;99.90;;;;;;5030496;28;20037;-71
2022/09/04 01:23:02;;;;;;;10.27;2.10;;;26.30;99.90;;;;;;5013075;28;20037;-71
2022/09/04 01:25:57;;;;;;;10.93;2.15;;;26.20;99.90;;;;;;5030653;28;20049;-71
2022/09/04 01:28:35;;;;;;;8.07;2.30;;;26.30;99.90;;;;;;5030311;28;20060;-71
2022/09/04 01:31:23;;;;;;;6.80;2.22;;;26.20;99.90;;;;;;5030656;28;20022;-71
2022/09/04 01:34:17;;;;;;;9.60;2.30;;;26.20;99.90;;;;;;5030554;28;20105;-71
2022/09/04 01:37:19;;;;;;;8.43;2.40;;;26.20;99.90;;;;;;5030579;28;20442;-71
2022/09/04 01:40:01;;;;;;;10.23;2.17;;;26.20;99.90;;;;;;5030379;28;20113;-71
2022/09/04 01:42:46;;;;;;;11.30;2.10;;;26.20;99.90;;;;;;5030315;28;20036;-71
2022/09/04 01:45:16;;;;;;;7.40;2.20;;;26.10;99.90;;;;;;5030390;28;20040;-71
2022/09/04 01:47:50;;;;;;;10.75;2.40;;;26.20;99.90;;;;;;5030031;28;20119;-71
2022/09/04 01:50:25;;;;;;;9.65;2.40;;;26.20;99.90;;;;;;5030401;28;20049;-71
2022/09/04 01:53:03;;;;;;;7.90;2.35;;;26.20;99.90;;;;;;5030337;28;20021;-71
2022/09/04 01:55:48;;;;;;;10.82;2.50;;;26.30;99.90;;;;;;5030222;28;20056;-71
2022/09/04 01:58:26;;;;;;;6.97;1.98;;;26.30;99.90;;;;;;5030298;28;20033;-71
2022/09/04 02:01:18;;;;;;;9.52;2.28;;;26.30;99.90;;;;;;5029884;28;20370;-71
2022/09/04 02:03:45;;;;;;;10.95;2.25;;;26.30;99.90;;;;;;5030218;28;20029;-71
2022/09/04 02:06:37;;;;;;;8.90;2.40;;;26.30;99.90;;;;;;5032337;28;20067;-71
2022/09/04 02:09:29;;;;;;;9.43;2.45;;;26.30;99.90;;;;;;5034405;28;20458;-71
2022/09/04 02:12:18;;;;;;;11.23;2.63;;;26.30;99.90;;;;;;5034092;28;20029;-71
2022/09/04 02:15:02;;;;;;;6.32;2.20;;;26.30;99.90;;;;;;5032200;28;20546;-72
2022/09/04 02:17:46;;;;;;;9.15;2.47;;;26.20;99.90;;;;;;5033997;28;20060;-71
2022/09/04 02:20:28;;;;;;;12.60;2.58;;;26.20;99.90;;;;;;5034035;28;20026;-70
2022/09/04 02:23:31;;;;;;;6.95;2.17;;;26.10;99.90;;;;;;5033889;28;20032;-71
2022/09/04 02:26:12;;;;;;;10.10;2.20;;;26.20;99.90;;;;;;5033603;28;20212;-71
2022/09/04 02:29:20;;;;;;;11.07;2.20;;;26.20;99.90;;;;;;5033651;28;20346;-71
2022/09/04 02:32:17;;;;;;;14.85;2.78;;;26.20;99.90;;;;;;5030126;28;20171;-71
2022/09/04 02:35:09;;;;;;;10.07;2.33;;;26.20;99.90;;;;;;5021946;28;20049;-71
2022/09/04 02:37:59;;;;;;;9.13;2.17;;;26.20;99.90;;;;;;5033027;28;20091;-71
2022/09/04 02:40:57;;;;;;;10.82;2.13;;;26.20;99.90;;;;;;5033485;28;20029;-70
2022/09/04 02:44:01;;;;;;;7.55;2.28;;;26.20;99.90;;;;;;5033444;28;20021;-71
2022/09/04 02:47:12;;;;;;;6.50;2.15;;;26.10;99.90;;;;;;5031909;28;20052;-70
2022/09/04 02:50:17;;;;;;;9.90;2.25;;;26.00;99.90;;;;;;5010855;28;20069;-71
2022/09/04 02:53:03;;;;;;;8.25;2.13;;;25.90;99.90;;;;;;5011152;28;20173;-70
2022/09/04 02:55:56;;;;;;;12.15;2.05;;;25.80;99.90;;;;;;5011311;28;20398;-70
2022/09/04 02:58:46;;;;;;;7.75;2.03;;;25.60;99.90;;;;;;5011115;28;20088;-71
2022/09/04 03:01:31;;;;;;;7.80;1.90;;;25.60;99.90;;;;;;5010776;28;20482;-71
2022/09/04 03:04:11;;;;;;;10.77;2.13;;;25.70;99.90;;;;;;5010794;28;20030;-71
2022/09/04 03:06:52;;;;;;;10.02;2.10;;;25.80;99.90;;;;;;5011012;28;20034;-71
2022/09/04 03:09:31;;;;;;;14.07;2.47;;;25.90;99.90;;;;;;5010852;28;20062;-71
2022/09/04 03:12:04;;;;;;;11.32;2.35;;;25.90;99.90;;;;;;5010889;28;20462;-71
2022/09/04 03:14:51;;;;;;;9.77;2.13;;;26.00;99.90;;;;;;5010924;28;20176;-71
2022/09/04 03:17:32;;;;;;;8.10;2.05;;;26.10;99.90;;;;;;5009316;28;20089;-70
2022/09/04 03:20:18;;;;;;;11.05;2.35;;;26.10;99.90;;;;;;5010720;28;20403;-72
2022/09/04 03:22:57;;;;;;;11.35;2.10;;;26.20;99.90;;;;;;5010753;28;20026;-70
2022/09/04 03:25:53;;;;;;;5.63;1.92;;;26.20;99.90;;;;;;5014815;28;20482;-70
2022/09/04 03:28:44;;;;;;;7.05;1.90;;;26.20;99.90;;;;;;5032386;28;20049;-71
2022/09/04 03:31:31;;;;;;;10.65;2.60;;;26.20;99.90;;;;;;5032436;28;20096;-71
2022/09/04 03:34:26;;;;;;;8.15;1.92;;;26.20;99.90;;;;;;5032809;28;20365;-71
2022/09/04 03:37:09;;;;;;;6.90;1.92;;;26.20;99.90;;;;;;5032618;28;20036;-71
2022/09/04 03:39:59;;;;;;;7.30;2.15;;;26.10;99.90;;;;;;5032637;28;20022;-71
2022/09/04 03:42:46;;;;;;;10.93;2.22;;;26.10;99.90;;;;;;5023460;28;20442;-71
2022/09/04 03:45:51;;;;;;;9.98;2.28;;;26.10;99.90;;;;;;5032199;28;20025;-71
2022/09/04 03:48:47;;;;;;;11.82;2.17;;;26.10;99.90;;;;;;5028726;28;20033;-71
2022/09/04 03:51:13;;;;;;;;;;;26.10;99.90;;;;;;5031592;28;20151;-71
2022/09/04 03:53:55;;;;;;;7.25;2.35;;;26.10;99.90;;;;;;5031833;28;19905;-71
2022/09/04 03:56:43;;;;;;;9.02;2.30;;;26.10;99.90;;;;;;5032091;28;20037;-71
2022/09/04 03:59:24;;;;;;;10.45;2.15;;;26.00;99.90;;;;;;5030290;28;20022;-71
2022/09/04 04:02:12;;;;;;;12.00;2.13;;;26.10;99.90;;;;;;5031644;28;20045;-71
2022/09/04 04:04:38;;;;;;;10.18;2.10;;;26.10;99.90;;;;;;5031888;28;20128;-71
2022/09/04 04:07:41;;;;;;;7.53;2.15;;;26.10;99.90;;;;;;5031672;28;20124;-71
2022/09/04 04:10:32;;;;;;;9.98;2.15;;;26.00;99.90;;;;;;5031854;28;20488;-71
2022/09/04 04:13:22;;;;;;;9.02;1.80;;;26.00;99.90;;;;;;5031643;28;20121;-70
2022/09/04 04:16:07;;;;;;;7.68;1.75;;;26.10;99.90;;;;;;5031554;28;20101;-70
2022/09/04 04:19:10;;;;;;;10.82;2.10;;;26.10;99.90;;;;;;5031609;28;20102;-71
2022/09/04 04:22:11;;;;;;;8.82;2.00;;;26.10;99.90;;;;;;5029841;28;20145;-71
2022/09/04 04:24:56;;;;;;;12.25;2.30;;;26.10;99.90;;;;;;5031237;28;20425;-70
2022/09/04 04:27:40;;;;;;;9.10;2.00;;;26.00;99.90;;;;;;5031018;28;20099;-71
2022/09/04 04:30:13;;;;;;;10.65;2.72;;;26.10;99.90;;;;;;5031572;28;20147;-72
2022/09/04 04:32:49;;;;;;;13.52;2.58;;;26.10;99.90;;;;;;5031343;28;20120;-71
2022/09/04 04:35:27;;;;;;;7.97;1.90;;;26.10;99.90;;;;;;5029475;28;20037;-70
2022/09/04 04:38:46;;;;;;;11.77;2.20;;;26.00;99.90;;;;;;5031124;28;20036;-71
2022/09/04 04:41:15;;;;;;;7.60;2.00;;;26.00;99.90;;;;;;5008986;28;20034;-70
2022/09/04 04:43:58;;;;;;;8.25;2.13;;;26.00;99.90;;;;;;5009030;28;20474;-71
2022/09/04 04:46:35;;;;;;;7.85;2.03;;;26.00;99.90;;;;;;4992342;28;20038;-71
2022/09/04 04:49:21;;;;;;;9.45;2.05;;;25.90;99.90;;;;;;5008695;28;20034;-70
2022/09/04 04:52:17;;;;;;;9.55;2.03;;;25.90;99.90;;;;;;5008370;28;20098;-70
2022/09/04 04:54:50;;;;;;;9.25;2.40;;;26.00;99.90;;;;;;5008805;28;20189;-71
2022/09/04 04:57:30;;;;;;;11.38;3.50;;;26.10;99.90;;;;;;5008573;28;20413;-70
2022/09/04 05:00:19;;;;;;;12.25;2.45;;;26.20;99.90;;;;;;5008576;28;20041;-71
2022/09/04 05:03:06;;;;;;;9.10;2.10;;;26.30;99.90;;;;;;5008772;28;20064;-71
2022/09/04 05:06:02;;;;;;;10.07;2.13;;;26.30;99.90;;;;;;5008527;28;20427;-71
2022/09/04 05:08:48;;;;;;;8.77;1.77;;;26.30;99.90;;;;;;5008670;28;20038;-70
2022/09/04 05:11:35;;;;;;;9.65;2.20;;;26.30;99.90;;;;;;5008547;28;20057;-71
2022/09/04 05:14:31;;;;;;;14.27;2.35;;;26.50;99.90;;;;;;5008533;28;20414;-71
2022/09/04 05:17:12;;;;;;;;;;;26.60;99.90;;;;;;5017254;28;20338;-70
2022/09/04 05:20:08;;;;;;;9.15;2.03;;;26.70;99.90;;;;;;5030104;28;19916;-71
2022/09/04 05:22:52;;;;;;;7.68;1.80;;;26.80;99.90;;;;;;5030369;28;20096;-71
2022/09/04 05:25:39;;;;;;;8.23;1.85;;;26.90;99.90;;;;;;5030318;28;20451;-70
2022/09/04 05:28:27;;;;;;;10.07;1.80;;;27.40;99.90;;;;;;5028313;28;20118;-70
2022/09/04 05:31:13;;;;;;;9.05;2.33;;;28.10;99.90;;;;;;5030312;28;20037;-71
2022/09/04 05:34:04;;;;;;;11.80;2.20;;;28.80;99.90;;;;;;5030157;28;20394;-71
2022/09/04 05:37:04;;;;;;;8.80;2.40;;;29.10;99.90;;;;;;5029664;28;20125;-71
2022/09/04 05:40:08;;;;;;;9.40;2.15;;;29.00;99.90;;;;;;5029408;28;20453;-70
2022/09/04 05:42:44;;;;;;;8.50;1.90;;;29.40;99.90;;;;;;5017776;28;20142;-71
2022/09/04 05:45:48;;;;;;;7.32;1.70;;;29.70;99.90;;;;;;5030063;28;20494;-71
2022/09/04 05:48:43;;;;;;;6.65;1.88;;;29.50;99.90;;;;;;5029772;28;20499;-71
2022/09/04 05:51:12;;;;;;;4.45;1.83;;;28.90;99.90;;;;;;5029910;28;20033;-71
2022/09/04 05:54:09;;;;;;;9.98;2.10;;;28.40;99.90;;;;;;5029587;28;20021;-71
2022/09/04 05:56:53;;;;;;;9.85;2.47;;;28.20;99.90;;;;;;5029674;28;20079;-71
2022/09/04 05:59:34;;;;;;;12.32;2.42;;;27.90;99.90;;;;;;5029681;28;20044;-71
2022/09/04 06:02:37;;;;;;;9.75;2.45;;;28.20;99.90;;;;;;5029763;28;20093;-72
2022/09/04 06:05:57;;;;;;;12.75;2.55;;;29.50;99.90;;;;;;5029796;28;20053;-71
2022/09/04 06:08:46;;;;;;;10.45;2.50;;;31.20;99.90;;;;;;5007806;28;20493;-72
2022/09/04 06:11:24;;;;;;;9.55;2.50;;;31.40;99.90;;;;;;5028525;28;20037;-72
2022/09/04 06:14:00;;;;;;;10.65;2.15;;;31.40;99.90;;;;;;5029549;28;20022;-71
2022/09/04 06:16:50;;;;;;;10.88;2.28;;;31.70;99.90;;;;;;5029859;28;20091;-71
2022/09/04 06:19:43;;;;;;;10.00;2.10;;;32.20;99.90;;;;;;5029890;28;20025;-72
2022/09/04 06:22:54;;;;;;;8.13;1.80;;;33.30;99.90;;;;;;5030181;28;20025;-72
2022/09/04 06:25:38;;;;;;;6.38;1.70;;;34.10;99.90;;;;;;5030051;28;20030;-72
2022/09/04 06:28:16;;;;;;;7.82;1.73;;;35.10;99.70;;;;;;5029955;28;20033;-72
2022/09/04 06:31:19;;;;;;;7.88;1.80;;;34.90;99.10;;;;;;5029763;28;20061;-73
2022/09/04 06:34:04;;;;;;;9.20;2.20;;;35.10;99.10;;;;;;5029571;28;20030;-72
2022/09/04 06:36:48;;;;;;;5.82;1.60;;;35.90;98.30;;;;;;5028131;28;20484;-72
2022/09/04 06:39:36;;;;;;;10.65;2.15;;;36.50;97.50;;;;;;5030011;28;20022;-72
2022/09/04 06:42:25;;;;;;;9.43;1.80;;;37.00;97.50;;;;;;5029894;28;20030;-72
2022/09/04 06:45:24;;;;;;;8.35;1.80;;;37.40;96.80;;;;;;5028078;28;20021;-72
2022/09/04 06:48:20;;;;;;;9.30;1.80;;;38.10;96.10;;;;;;5029423;28;20029;-72
2022/09/04 06:51:07;;;;;;;7.68;1.58;;;37.70;95.80;;;;;;5028932;28;20445;-72
2022/09/04 06:54:07;;;;;;;8.38;2.10;;;37.40;96.80;;;;;;5033139;28;20504;-72
2022/09/04 06:56:58;;;;;;;8.75;1.85;;;37.30;95.90;;;;;;5033116;28;20047;-72
2022/09/04 06:59:43;;;;;;;6.43;2.22;;;36.90;96.40;;;;;;5033026;28;20025;-72
2022/09/04 07:02:19;;;;;;;9.23;2.47;;;37.80;95.70;;;;;;5033447;28;20033;-72
2022/09/04 07:05:03;;;;;;;16.02;2.95;;;37.50;95.70;;;;;;5033215;28;20430;-72
2022/09/04 07:08:03;;;;;;;16.50;2.30;;;38.20;95.40;;;;;;5032966;28;20117;-73
2022/09/04 07:10:33;;;;;;;9.07;2.42;;;39.60;94.40;;;;;;5031398;28;20632;-73
2022/09/04 07:13:27;;;;;;;12.32;3.53;;;40.60;93.90;;;;;;5032779;28;20092;-72
2022/09/04 07:16:28;;;;;;;11.10;3.90;;;41.10;93.10;;;;;;5032757;28;20040;-74
2022/09/04 07:19:09;;;;;;;12.07;2.45;;;41.60;93.00;;;;;;5033022;28;20301;-73
2022/09/04 07:21:38;;;;;;;11.13;3.10;;;41.40;92.60;;;;;;5032860;28;20092;-74
2022/09/04 07:24:49;;;;;;;9.98;2.38;;;40.70;92.50;;;;;;5032365;28;20068;-73
2022/09/04 07:27:39;;;;;;;10.52;2.72;;;40.60;93.10;;;;;;5032462;28;20030;-73
2022/09/04 07:30:13;;;;;;;9.32;2.15;;;40.10;93.10;;;;;;5032627;28;20045;-73
2022/09/04 07:32:56;;;;;;;11.95;2.40;;;39.70;93.40;;;;;;5032885;28;20036;-73
2022/09/04 07:35:40;;;;;;;8.10;2.42;;;39.00;93.70;;;;;;5032599;28;20034;-73
2022/09/04 07:38:34;;;;;;;6.57;2.00;;;37.80;94.70;;;;;;5032198;28;20390;-73
2022/09/04 07:41:12;;;;;;;13.10;3.15;;;37.10;95.90;;;;;;5030596;28;20389;-73
2022/09/04 07:44:10;;;;;;;7.75;2.08;;;36.80;96.70;;;;;;5032280;28;20029;-72
2022/09/04 07:46:51;;;;;;;10.70;2.58;;;36.70;96.90;;;;;;5032198;28;20033;-72
2022/09/04 07:49:22;;;;;;;11.13;2.40;;;36.50;97.50;;;;;;5032180;28;20087;-72
2022/09/04 07:52:21;;;;;;;14.05;2.72;;;36.30;98.10;;;;;;5032078;28;20532;-72
2022/09/04 07:55:12;;;;;;;16.20;2.80;;;35.60;99.10;;;;;;5009666;28;20042;-72
2022/09/04 07:57:55;;;;;;;7.90;2.47;;;35.30;99.80;;;;;;5009962;28;20501;-72
2022/09/04 08:00:21;;;;;;;10.70;2.97;;;35.20;99.90;;;;;;5009894;28;20038;-72
2022/09/04 08:03:00;;;;;;;8.98;2.10;;;35.10;99.90;;;;;;5008808;28;20124;-72
2022/09/04 08:05:48;;;;;;;13.88;2.40;;;35.10;99.90;;;;;;5010108;28;20451;-72
2022/09/04 08:08:24;;;;;;;12.98;2.95;;;35.20;99.90;;;;;;5009789;28;20022;-72
2022/09/04 08:11:25;;;;;;;11.60;2.70;;;35.20;99.90;;;;;;5009973;28;20041;-72
2022/09/04 08:14:12;;;;;;;11.18;2.50;;;35.10;99.90;;;;;;4974958;28;20042;-72
2022/09/04 08:17:01;;;;;;;10.23;2.15;;;35.30;99.90;;;;;;5009913;28;20037;-72
2022/09/04 08:19:31;;;;;;;10.70;1.92;;;35.50;99.90;;;;;;5010970;28;20034;-72
2022/09/04 08:21:57;;;;;;;11.10;2.08;;;35.50;99.90;;;;;;5010690;28;20129;-72
2022/09/04 08:24:37;;;;;;;18.55;2.78;;;35.60;99.90;;;;;;5010582;28;20082;-72
2022/09/04 08:27:41;;;;;;;9.05;2.45;;;35.60;99.90;;;;;;5010766;28;20092;-72
2022/09/04 08:30:12;;;;;;;14.13;2.08;;;35.40;99.90;;;;;;4971689;28;20133;-72
2022/09/04 08:32:55;;;;;;;8.10;2.25;;;35.30;99.90;;;;;;4989441;28;20060;-72
2022/09/04 08:35:33;;;;;;;10.05;2.35;;;35.40;99.90;;;;;;4990869;28;20046;-72
2022/09/04 08:38:08;;;;;;;7.50;1.88;;;35.60;99.90;;;;;;4990924;28;20084;-72
2022/09/04 08:40:39;;;;;;;8.82;2.15;;;35.80;99.90;;;;;;4990989;28;20080;-72
2022/09/04 08:43:37;;;;;;;7.72;2.10;;;35.80;99.90;;;;;;4990497;28;20040;-72
2022/09/04 08:46:18;;;;;;;8.10;2.33;;;35.70;99.90;;;;;;4974056;28;20050;-72
2022/09/04 08:48:59;;;;;;;7.72;2.00;;;35.50;99.90;;;;;;4990519;28;20030;-72
2022/09/04 08:51:49;;;;;;;9.77;2.15;;;35.50;99.90;;;;;;4989931;28;20038;-72
2022/09/04 08:54:47;;;;;;;9.75;1.90;;;35.60;99.90;;;;;;4989992;28;20038;-72
2022/09/04 08:57:50;;;;;;;44.40;3.83;;;35.20;99.90;;;;;;4989617;28;20506;-72
2022/09/04 09:00:22;;;;;;;10.65;2.10;;;34.50;99.90;;;;;;4989759;28;20034;-72
2022/09/04 09:03:28;;;;;;;9.18;2.00;;;34.40;99.90;;;;;;4989480;28;20062;-72
2022/09/04 09:06:05;;;;;;;6.93;1.67;;;34.50;99.90;;;;;;5004737;28;20030;-72
2022/09/04 09:09:04;;;;;;;14.82;2.58;;;34.40;99.90;;;;;;5031459;28;20037;-72
2022/09/04 09:11:42;;;;;;;10.32;2.40;;;34.40;99.90;;;;;;5031058;28;20109;-72
2022/09/04 09:14:59;;;;;;;12.73;2.20;;;34.30;99.90;;;;;;5031328;28;20431;-72
2022/09/04 09:17:47;;;;;;;7.70;2.22;;;34.40;99.90;;;;;;5018777;28;20068;-72
2022/09/04 09:20:27;;;;;;;8.65;2.03;;;34.50;99.90;;;;;;5029469;28;20029;-72
2022/09/04 09:23:17;;;;;;;11.80;2.30;;;34.20;99.90;;;;;;5029468;28;20025;-72
2022/09/04 09:25:48;;;;;;;7.88;1.85;;;33.80;99.90;;;;;;5030656;28;20104;-72
2022/09/04 09:28:17;;;;;;;11.07;2.25;;;33.80;99.90;;;;;;5030538;28;20069;-72
2022/09/04 09:30:55;;;;;;;8.55;2.10;;;33.80;99.90;;;;;;5030745;28;20059;-72
2022/09/04 09:33:54;;;;;;;8.02;2.05;;;33.90;99.90;;;;;;5030923;28;20438;-72
2022/09/04 09:37:01;;;;;;;8.52;1.80;;;33.90;99.90;;;;;;5031073;28;20132;-72
2022/09/04 09:39:45;;;;;;;11.35;2.28;;;33.90;99.90;;;;;;5031455;28;20052;-72
2022/09/04 09:42:36;;;;;;;11.23;2.13;;;33.90;99.90;;;;;;5029418;28;20375;-73
2022/09/04 09:45:37;;;;;;;13.73;2.10;;;34.10;99.90;;;;;;5029314;28;20112;-72
2022/09/04 09:48:23;;;;;;;11.13;1.90;;;33.70;99.90;;;;;;5030967;28;20021;-72
2022/09/04 09:51:19;;;;;;;12.10;1.98;;;33.40;99.90;;;;;;5031021;28;20488;-72
2022/09/04 09:54:08;;;;;;;8.80;2.30;;;33.30;99.90;;;;;;5030892;28;20450;-72
2022/09/04 09:56:52;;;;;;;9.75;1.92;;;33.30;99.90;;;;;;5030945;28;20109;-72
2022/09/04 09:59:54;;;;;;;9.93;1.90;;;33.40;99.90;;;;;;5031047;28;20095;-72
2022/09/04 10:02:29;;;;;;;9.45;2.05;;;33.30;99.90;;;;;;5030794;28;20045;-73
2022/09/04 10:05:40;;;;;;;12.53;2.17;;;33.10;99.90;;;;;;5030984;28;20061;-71
2022/09/04 10:08:33;;;;;;;8.82;2.08;;;33.00;99.90;;;;;;5008590;28;20112;-72
2022/09/04 10:11:14;;;;;;;11.45;2.17;;;33.10;99.90;;;;;;5008513;28;20045;-71
2022/09/04 10:14:15;;;;;;;15.00;2.72;;;33.10;99.90;;;;;;5008862;28;20108;-72
2022/09/04 10:17:02;;;;;;;9.55;2.20;;;33.30;99.90;;;;;;5008401;28;20504;-72
2022/09/04 10:19:59;;;;;;;8.93;2.38;;;33.10;99.90;;;;;;5008289;28;20080;-73
2022/09/04 10:22:33;;;;;;;15.85;2.83;;;33.30;99.90;;;;;;5008797;28;20124;-72
2022/09/04 10:25:36;;;;;;;11.48;2.47;;;33.20;99.90;;;;;;5008619;28;20517;-73
2022/09/04 10:28:38;;;;;;;11.30;2.03;;;32.90;99.90;;;;;;5012530;28;20050;-72
2022/09/04 10:31:16;;;;;;;10.05;2.67;;;32.90;99.90;;;;;;5012843;28;20544;-72
2022/09/04 10:33:58;;;;;;;9.95;2.28;;;32.80;99.90;;;;;;5012350;28;20458;-72
2022/09/04 10:36:47;;;;;;;8.45;2.35;;;32.70;99.90;;;;;;5012386;28;20045;-72
2022/09/04 10:42:51;;;;;;;9.48;2.50;;;32.80;99.90;;;;;;5012490;28;20053;-72
2022/09/04 10:45:37;;;;;;;8.55;2.47;;;32.70;99.90;;;;;;5014579;28;20438;-72
2022/09/04 10:48:39;;;;;;;9.35;2.45;;;32.80;99.90;;;;;;5014321;28;20108;-72
2022/09/04 10:51:33;;;;;;;11.32;2.38;;;32.80;99.90;;;;;;5014518;28;20060;-72
2022/09/04 10:54:18;;;;;;;11.32;3.05;;;32.60;99.90;;;;;;5014632;28;20076;-72
2022/09/04 10:57:27;;;;;;;9.25;2.63;;;32.70;99.90;;;;;;5014061;28;20022;-73
2022/09/04 11:00:34;;;;;;;8.25;2.45;;;32.80;99.90;;;;;;5014346;28;20101;-72
2022/09/04 11:03:29;;;;;;;8.02;2.33;;;32.80;99.90;;;;;;5015935;28;20042;-72
2022/09/04 11:06:29;;;;;;;14.70;2.80;;;33.00;99.90;;;;;;5020998;28;20038;-72
2022/09/04 11:09:03;;;;;;;7.65;2.25;;;32.80;99.90;;;;;;5013969;28;20034;-72
2022/09/04 11:11:39;;;;;;;16.85;2.35;;;32.90;99.90;;;;;;5013990;28;20029;-72
2022/09/04 11:14:05;;;;;;;;;;;33.00;99.90;;;;;;5014086;28;20462;-72
2022/09/04 11:16:40;;;;;;;8.80;2.20;;;32.80;99.90;;;;;;5013667;28;19920;-72
2022/09/04 11:19:37;;;;;;;10.30;2.10;;;32.90;99.90;;;;;;5013916;28;20022;-72
2022/09/04 11:22:33;;;;;;;13.15;2.67;;;33.20;99.90;;;;;;5013940;28;20029;-73
2022/09/04 11:25:18;;;;;;;7.93;2.33;;;33.40;99.90;;;;;;5013711;28;20025;-72
2022/09/04 11:28:05;;;;;;;10.57;2.63;;;33.20;99.90;;;;;;5015360;28;20401;-73
2022/09/04 11:30:56;;;;;;;12.13;2.28;;;33.20;99.90;;;;;;5033549;28;20029;-72
2022/09/04 11:33:22;;;;;;;16.65;2.33;;;33.40;99.90;;;;;;5033302;28;20112;-72
2022/09/04 11:36:21;;;;;;;11.75;2.67;;;33.60;99.90;;;;;;5033431;28;20044;-72
2022/09/04 11:39:07;;;;;;;12.98;2.75;;;33.50;99.90;;;;;;5032490;28;20147;-72
2022/09/04 11:42:07;;;;;;;10.90;2.58;;;33.20;99.90;;;;;;5033317;28;20030;-72
2022/09/04 11:44:59;;;;;;;12.57;2.30;;;32.90;99.90;;;;;;5013978;28;20519;-72
2022/09/04 11:48:06;;;;;;;9.48;2.33;;;32.50;99.90;;;;;;5033145;28;20021;-72
2022/09/04 11:51:04;;;;;;;16.02;2.65;;;32.70;99.90;;;;;;5032979;28;20072;-72
2022/09/04 11:53:47;;;;;;;8.98;2.10;;;32.30;99.90;;;;;;5030682;28;20478;-72
2022/09/04 11:56:54;;;;;;;10.85;2.60;;;32.30;99.90;;;;;;5032814;28;20037;-72
2022/09/04 11:59:29;;;;;;;14.00;2.47;;;32.20;99.90;;;;;;4994266;28;20034;-72
2022/09/04 12:02:14;;;;;;;13.90;2.95;;;32.10;99.90;;;;;;5010923;28;20121;-72
2022/09/04 12:05:00;;;;;;;12.75;2.53;;;32.10;99.90;;;;;;5010523;28;20038;-72
2022/09/04 12:07:52;;;;;;;11.43;2.65;;;32.20;99.90;;;;;;5010869;28;20140;-72
2022/09/04 12:10:30;;;;;;;12.35;2.75;;;32.30;99.90;;;;;;5010560;28;20478;-72
2022/09/04 12:13:32;;;;;;;9.57;2.42;;;32.30;99.90;;;;;;5010600;28;20042;-72
2022/09/04 12:16:37;;;;;;;16.80;2.58;;;32.50;99.90;;;;;;5010536;28;20050;-72
2022/09/04 12:19:38;;;;;;;14.70;3.08;;;32.70;99.90;;;;;;4998901;28;20034;-73
2022/09/04 12:22:19;;;;;;;12.27;2.83;;;32.80;99.90;;;;;;5010331;28;20041;-72
2022/09/04 12:25:16;;;;;;;10.02;2.60;;;32.80;99.90;;;;;;5010187;28;20108;-72
2022/09/04 12:28:09;;;;;;;12.15;2.38;;;33.10;99.90;;;;;;5010163;28;20030;-72
2022/09/04 12:30:57;;;;;;;10.63;2.47;;;33.10;99.90;;;;;;5010417;28;20060;-73
2022/09/04 12:33:47;;;;;;;12.48;2.80;;;33.10;99.90;;;;;;5010532;28;20044;-72
2022/09/04 12:36:33;;;;;;;12.00;2.60;;;33.30;99.90;;;;;;5032335;28;20069;-72
2022/09/04 12:39:18;;;;;;;13.70;2.97;;;33.20;99.90;;;;;;5032254;28;20025;-72
2022/09/04 12:42:04;;;;;;;10.65;2.65;;;33.10;99.90;;;;;;5032375;28;20033;-72
2022/09/04 12:44:44;;;;;;;11.68;2.50;;;33.30;99.90;;;;;;5030433;28;20028;-72
2022/09/04 12:47:20;;;;;;;11.25;3.00;;;33.40;99.90;;;;;;5032090;28;20029;-72
2022/09/04 12:50:01;;;;;;;9.48;2.25;;;33.50;99.90;;;;;;5031970;28;20033;-72
2022/09/04 12:52:44;;;;;;;9.27;2.42;;;33.50;99.90;;;;;;5032006;28;20380;-72
2022/09/04 12:55:57;;;;;;;11.75;2.85;;;33.50;99.90;;;;;;5031908;28;20037;-72
2022/09/04 12:58:51;;;;;;;15.15;2.88;;;33.50;99.90;;;;;;5031684;28;20054;-72
2022/09/04 13:01:28;;;;;;;11.57;2.83;;;33.30;99.90;;;;;;5032153;28;20044;-72
2022/09/04 13:04:12;;;;;;;10.60;2.67;;;33.20;99.90;;;;;;5031526;28;20029;-72
2022/09/04 13:06:58;;;;;;;9.45;2.70;;;33.30;99.90;;;;;;5031974;28;20036;-72
2022/09/04 13:09:51;;;;;;;14.18;2.90;;;33.40;99.90;;;;;;5030066;28;20084;-72
2022/09/04 13:12:26;;;;;;;14.38;2.60;;;33.10;99.90;;;;;;5031817;28;20112;-72
2022/09/04 13:15:31;;;;;;;17.23;2.83;;;32.90;99.90;;;;;;5031344;28;20061;-72
2022/09/04 13:18:07;;;;;;;11.23;2.65;;;33.00;99.90;;;;;;5027394;28;20135;-71
2022/09/04 13:20:59;;;;;;;;;;;33.00;99.90;;;;;;5030122;28;20320;-71
2022/09/04 13:23:43;;;;;;;17.02;2.55;;;33.00;99.90;;;;;;5031273;28;20321;-71
2022/09/04 13:26:34;;;;;;;16.10;2.80;;;33.00;99.90;;;;;;5031455;28;20123;-71
2022/09/04 13:29:15;;;;;;;14.35;2.65;;;32.80;99.90;;;;;;5030842;28;20280;-71
2022/09/04 13:32:06;;;;;;;14.95;2.83;;;33.00;99.90;;;;;;5030829;28;20047;-72
2022/09/04 13:34:51;;;;;;;12.48;2.83;;;32.80;99.90;;;;;;5030973;28;20022;-71
2022/09/04 13:37:26;;;;;;;17.77;2.97;;;32.60;99.90;;;;;;5031180;28;20044;-71
2022/09/04 13:40:23;;;;;;;12.73;2.97;;;32.50;99.90;;;;;;5030740;28;20022;-71
2022/09/04 13:43:35;;;;;;;9.73;2.63;;;32.20;99.90;;;;;;5027365;28;20050;-71
2022/09/04 13:46:18;;;;;;;14.10;2.95;;;32.00;99.90;;;;;;5008578;28;20187;-72
2022/09/04 13:48:50;;;;;;;14.70;3.10;;;32.00;99.90;;;;;;5008675;28;20034;-71
2022/09/04 13:51:21;;;;;;;12.18;2.80;;;32.00;99.90;;;;;;5008492;28;20042;-72
2022/09/04 13:53:58;;;;;;;12.00;2.80;;;31.90;99.90;;;;;;4991961;28;20362;-71
2022/09/04 13:56:47;;;;;;;14.68;3.25;;;31.90;99.90;;;;;;5008769;28;20088;-71
2022/09/04 13:59:17;;;;;;;15.65;3.47;;;32.10;99.90;;;;;;5008290;28;20041;-71
2022/09/04 14:01:49;;;;;;;12.98;3.15;;;32.10;99.90;;;;;;5007664;28;20414;-71
2022/09/04 14:04:32;;;;;;;20.23;3.47;;;32.30;99.90;;;;;;4991143;28;20371;-71
2022/09/04 14:07:06;;;;;;;15.60;3.33;;;32.40;99.90;;;;;;5008050;28;20030;-72
2022/09/04 14:09:41;;;;;;;14.95;3.40;;;32.40;99.90;;;;;;4991543;28;20042;-71
2022/09/04 14:12:17;;;;;;;10.70;3.25;;;32.10;99.90;;;;;;5008061;28;20060;-72
2022/09/04 14:15:13;;;;;;;13.40;3.25;;;31.90;99.90;;;;;;5007992;28;20062;-71
2022/09/04 14:18:12;;;;;;;18.33;3.13;;;31.70;99.90;;;;;;5008390;28;20097;-71
2022/09/04 14:20:57;;;;;;;12.90;2.97;;;31.80;99.90;;;;;;5019879;28;20350;-71
2022/09/04 14:23:54;;;;;;;15.82;3.00;;;31.80;99.90;;;;;;5027751;28;20363;-72
2022/09/04 14:26:28;;;;;;;16.52;3.70;;;32.10;99.90;;;;;;5030203;28;20025;-72
2022/09/04 14:29:20;;;;;;;14.32;2.92;;;32.20;99.90;;;;;;5030152;28;20046;-71